Time;durP1;ratioP1;P1;durP2;ratioP2;P2;SDS_P1;SDS_P2;PMS_P1;PMS_P2;Temp;Humidity;BMP_temperature;BMP_pressure;BME280_temperature;BME280_humidity;BME280_pressure;Samples;Min_cycle;Max_cycle;Signal;HPM_P1;HPM_P2
2023/05/11 00:00:32;;;;;;;3.43;2.00;;;13.20;99.90;;;;;;5031856;28;20257;-86
2023/05/11 00:02:58;;;;;;;2.20;2.00;;;13.30;99.90;;;;;;5028703;28;20181;-85
2023/05/11 00:05:23;;;;;;;2.27;2.07;;;13.20;99.90;;;;;;5033477;28;20598;-86
2023/05/11 00:07:49;;;;;;;2.13;1.93;;;13.20;99.90;;;;;;5016034;28;20202;-89
2023/05/11 00:10:15;;;;;;;2.63;2.00;;;13.20;99.90;;;;;;5015181;28;20265;-86
2023/05/11 00:12:40;;;;;;;3.80;2.13;;;13.20;99.90;;;;;;5015915;28;20214;-86
2023/05/11 00:15:06;;;;;;;2.43;1.80;;;13.20;99.90;;;;;;5015713;28;20179;-86
2023/05/11 00:17:32;;;;;;;2.87;1.80;;;13.20;99.90;;;;;;5033440;28;20201;-86
2023/05/11 00:19:58;;;;;;;2.20;2.00;;;13.20;99.90;;;;;;5015094;28;20182;-89
2023/05/11 00:22:23;;;;;;;2.30;2.10;;;13.20;99.90;;;;;;5015597;28;20178;-85
2023/05/11 00:24:49;;;;;;;3.30;2.17;;;13.20;99.90;;;;;;5015420;28;20265;-86
2023/05/11 00:27:14;;;;;;;2.70;2.10;;;13.30;99.90;;;;;;5015297;28;20216;-86
2023/05/11 00:29:40;;;;;;;4.80;2.13;;;13.30;99.90;;;;;;5032684;28;20177;-89
2023/05/11 00:32:06;;;;;;;2.30;2.10;;;13.30;99.90;;;;;;5032623;28;20170;-86
2023/05/11 00:34:31;;;;;;;3.83;2.30;;;13.20;99.90;;;;;;5031259;28;20182;-86
2023/05/11 00:36:57;;;;;;;3.47;1.93;;;13.30;99.90;;;;;;5031820;28;20197;-86
2023/05/11 00:39:22;;;;;;;2.67;2.10;;;13.20;99.90;;;;;;5032707;28;20232;-87
2023/05/11 00:41:48;;;;;;;3.60;1.80;;;13.30;99.90;;;;;;5031274;28;20197;-86
2023/05/11 00:44:14;;;;;;;2.23;2.03;;;13.30;99.90;;;;;;5031855;28;20178;-86
2023/05/11 00:46:39;;;;;;;2.30;1.90;;;13.30;99.90;;;;;;5031598;28;20180;-86
2023/05/11 00:49:06;;;;;;;2.17;1.97;;;13.10;99.90;;;;;;5031445;28;20213;-87
2023/05/11 00:51:32;;;;;;;2.87;1.90;;;12.90;99.90;;;;;;5032523;28;20178;-87
2023/05/11 00:53:58;;;;;;;2.70;2.00;;;12.90;99.90;;;;;;5031298;28;20704;-87
2023/05/11 00:56:24;;;;;;;2.00;1.80;;;13.00;99.90;;;;;;5031592;28;20176;-86
2023/05/11 00:58:50;;;;;;;2.63;1.90;;;13.00;99.90;;;;;;5032461;28;20187;-87
2023/05/11 01:01:17;;;;;;;3.00;2.00;;;13.10;99.90;;;;;;5031858;28;20170;-87
2023/05/11 01:03:43;;;;;;;2.47;1.70;;;13.20;99.90;;;;;;5032508;28;20185;-86
2023/05/11 01:06:31;;;;;;;2.30;1.93;;;13.20;99.90;;;;;;5030759;28;20182;-87
2023/05/11 01:09:05;;;;;;;1.83;1.70;;;13.10;99.90;;;;;;5032331;28;20198;-86
2023/05/11 01:11:47;;;;;;;2.40;2.20;;;13.10;99.90;;;;;;5014988;28;20285;-86
2023/05/11 01:14:19;;;;;;;2.27;1.97;;;12.90;99.90;;;;;;5032281;28;20293;-86
2023/05/11 01:16:50;;;;;;;2.40;2.17;;;12.80;99.90;;;;;;5032448;28;20189;-86
2023/05/11 01:19:38;;;;;;;2.33;2.13;;;12.70;99.90;;;;;;5030918;28;20190;-86
2023/05/11 01:22:27;;;;;;;2.50;2.10;;;12.70;99.90;;;;;;5032609;28;20189;-86
2023/05/11 01:25:22;;;;;;;2.90;2.17;;;12.70;99.90;;;;;;4969523;28;20174;-86
2023/05/11 01:28:14;;;;;;;2.37;1.90;;;12.80;99.90;;;;;;5023379;28;20201;-86
2023/05/11 01:30:45;;;;;;;2.40;2.20;;;12.70;99.90;;;;;;5031935;28;20195;-85
2023/05/11 01:33:13;;;;;;;2.47;2.27;;;12.70;99.90;;;;;;5025911;28;20194;-86
2023/05/11 01:35:45;;;;;;;2.37;2.17;;;12.70;99.90;;;;;;5032089;28;20182;-87
2023/05/11 01:38:13;;;;;;;2.63;2.40;;;12.70;99.90;;;;;;5031061;28;20221;-86
2023/05/11 01:40:40;;;;;;;2.20;2.00;;;12.70;99.90;;;;;;5030480;28;20216;-86
2023/05/11 01:43:11;;;;;;;2.67;1.80;;;12.80;99.90;;;;;;5032203;28;20182;-86
2023/05/11 01:45:43;;;;;;;2.10;1.90;;;12.90;99.90;;;;;;5030510;28;20615;-88
2023/05/11 01:48:14;;;;;;;3.03;2.20;;;12.80;99.90;;;;;;5031141;28;20222;-86
2023/05/11 01:50:41;;;;;;;3.73;2.00;;;12.70;99.90;;;;;;5030140;28;20178;-86
2023/05/11 01:53:08;;;;;;;2.83;2.20;;;12.60;99.90;;;;;;5030737;28;20296;-86
2023/05/11 01:55:35;;;;;;;3.80;1.87;;;12.70;99.90;;;;;;5031939;28;20169;-89
2023/05/11 01:58:02;;;;;;;2.73;2.10;;;12.70;99.90;;;;;;5031870;28;20261;-87
2023/05/11 02:00:29;;;;;;;2.60;2.10;;;12.70;99.90;;;;;;5031419;28;20203;-86
2023/05/11 02:02:57;;;;;;;3.33;2.13;;;12.70;99.90;;;;;;5032064;28;20177;-86
2023/05/11 02:05:23;;;;;;;2.50;2.30;;;12.70;99.90;;;;;;5030470;28;20555;-86
2023/05/11 02:07:51;;;;;;;2.63;2.20;;;12.80;99.90;;;;;;5031955;28;20248;-86
2023/05/11 02:10:18;;;;;;;2.43;1.90;;;12.70;99.90;;;;;;5030273;28;20174;-86
2023/05/11 02:12:45;;;;;;;3.47;2.17;;;12.70;99.90;;;;;;5030497;28;20198;-85
2023/05/11 02:15:12;;;;;;;5.17;2.20;;;12.70;99.90;;;;;;5030592;28;20265;-86
2023/05/11 02:17:39;;;;;;;5.00;2.30;;;12.70;99.90;;;;;;5031715;28;20224;-86
2023/05/11 02:20:07;;;;;;;3.73;2.10;;;12.70;99.90;;;;;;5031284;28;20175;-88
2023/05/11 02:22:34;;;;;;;2.37;2.10;;;12.60;99.90;;;;;;5030289;28;20232;-88
2023/05/11 02:25:00;;;;;;;3.77;2.10;;;12.50;99.90;;;;;;5031835;28;20225;-86
2023/05/11 02:27:26;;;;;;;2.60;2.40;;;12.40;99.90;;;;;;5030604;28;20175;-86
2023/05/11 02:29:51;;;;;;;2.60;2.40;;;12.40;99.90;;;;;;5031352;28;20182;-85
2023/05/11 02:32:20;;;;;;;2.60;2.40;;;12.40;99.90;;;;;;5031376;28;20205;-88
2023/05/11 02:34:53;;;;;;;2.60;2.40;;;12.40;99.90;;;;;;5022194;28;20201;-86
2023/05/11 02:37:24;;;;;;;3.37;2.43;;;12.40;99.90;;;;;;5028077;28;20169;-86
2023/05/11 02:39:58;;;;;;;2.70;2.47;;;12.40;99.90;;;;;;5031424;28;20178;-87
2023/05/11 02:42:26;;;;;;;3.37;2.73;;;12.50;99.90;;;;;;5031523;28;20177;-86
2023/05/11 02:45:01;;;;;;;3.13;2.83;;;12.40;99.90;;;;;;5030164;28;20182;-87
2023/05/11 02:47:31;;;;;;;3.07;2.77;;;12.40;99.90;;;;;;5030022;28;20181;-86
2023/05/11 02:50:00;;;;;;;3.03;2.73;;;12.50;99.90;;;;;;5029733;28;20268;-86
2023/05/11 02:52:28;;;;;;;4.77;3.20;;;12.50;99.90;;;;;;5030103;28;20198;-87
2023/05/11 02:54:55;;;;;;;3.27;2.50;;;12.60;99.90;;;;;;5031766;28;20236;-86
2023/05/11 02:57:21;;;;;;;3.40;2.47;;;12.50;99.90;;;;;;5033624;28;20171;-86
2023/05/11 02:59:48;;;;;;;2.80;2.60;;;12.50;99.90;;;;;;5034550;28;20171;-86
2023/05/11 03:02:13;;;;;;;4.30;2.70;;;12.50;99.90;;;;;;5034835;28;20177;-86
2023/05/11 03:04:39;;;;;;;3.13;2.60;;;12.50;99.90;;;;;;5033768;28;20166;-87
2023/05/11 03:07:06;;;;;;;4.67;2.70;;;12.50;99.90;;;;;;5035170;28;20228;-86
2023/05/11 03:09:33;;;;;;;2.90;2.60;;;12.60;99.90;;;;;;5033306;28;20285;-86
2023/05/11 03:11:58;;;;;;;3.43;2.80;;;12.50;99.90;;;;;;5033015;28;20301;-86
2023/05/11 03:14:26;;;;;;;3.93;2.60;;;12.50;99.90;;;;;;5033574;28;20261;-86
2023/05/11 03:16:52;;;;;;;3.17;2.83;;;12.50;99.90;;;;;;5034782;28;20177;-86
2023/05/11 03:19:18;;;;;;;2.80;2.53;;;12.50;99.90;;;;;;5034363;28;20540;-86
2023/05/11 03:21:44;;;;;;;3.30;3.00;;;12.50;99.90;;;;;;5032785;28;20221;-86
2023/05/11 03:24:11;;;;;;;4.93;2.80;;;12.40;99.90;;;;;;5033543;28;20206;-86
2023/05/11 03:26:38;;;;;;;2.70;2.37;;;12.40;99.90;;;;;;5032980;28;20265;-86
2023/05/11 03:29:06;;;;;;;4.73;3.07;;;12.30;99.90;;;;;;5034398;28;20237;-88
2023/05/11 03:31:31;;;;;;;3.10;2.80;;;12.20;99.90;;;;;;5032703;28;20175;-88
2023/05/11 03:33:57;;;;;;;3.33;3.00;;;12.20;99.90;;;;;;5034236;28;20284;-86
2023/05/11 03:36:24;;;;;;;3.23;2.87;;;12.20;99.90;;;;;;5032838;28;20265;-86
2023/05/11 03:38:51;;;;;;;3.67;3.00;;;12.10;99.90;;;;;;5032902;28;20201;-86
2023/05/11 03:41:20;;;;;;;3.43;2.73;;;12.10;99.90;;;;;;5032120;28;20227;-86
2023/05/11 03:43:48;;;;;;;3.37;2.67;;;12.10;99.90;;;;;;5032661;28;20178;-86
2023/05/11 03:46:18;;;;;;;5.23;2.90;;;12.10;99.90;;;;;;5032973;28;20174;-85
2023/05/11 03:48:44;;;;;;;3.97;2.80;;;12.20;99.90;;;;;;5032528;28;20233;-86
2023/05/11 03:51:10;;;;;;;3.17;2.80;;;12.20;99.90;;;;;;5032326;28;20258;-86
2023/05/11 03:53:36;;;;;;;3.60;2.63;;;12.20;99.90;;;;;;5032517;28;20666;-86
2023/05/11 03:56:03;;;;;;;4.47;3.07;;;12.10;99.90;;;;;;5034362;28;20261;-85
2023/05/11 03:58:30;;;;;;;6.03;3.00;;;12.10;99.90;;;;;;5032854;28;20574;-84
2023/05/11 04:00:56;;;;;;;3.30;3.00;;;12.10;99.90;;;;;;5032419;28;20189;-83
2023/05/11 04:03:21;;;;;;;3.13;2.80;;;12.10;99.90;;;;;;5034147;28;20669;-84
2023/05/11 04:05:47;;;;;;;3.30;3.00;;;12.10;99.90;;;;;;5033758;28;20234;-84
2023/05/11 04:08:12;;;;;;;4.57;3.20;;;12.10;99.90;;;;;;5032743;28;20638;-84
2023/05/11 04:10:38;;;;;;;3.63;2.83;;;12.20;99.90;;;;;;5032741;28;20182;-84
2023/05/11 04:13:04;;;;;;;3.40;3.03;;;12.20;99.90;;;;;;5033690;28;20216;-84
2023/05/11 04:15:29;;;;;;;3.13;2.70;;;12.30;99.90;;;;;;5033592;28;20213;-84
2023/05/11 04:17:55;;;;;;;3.10;2.77;;;12.30;99.90;;;;;;5033498;28;20186;-84
2023/05/11 04:20:21;;;;;;;3.03;2.60;;;12.30;99.90;;;;;;5032984;28;20178;-84
2023/05/11 04:22:46;;;;;;;4.07;3.00;;;12.40;99.90;;;;;;5033414;28;20546;-84
2023/05/11 04:25:12;;;;;;;4.97;3.07;;;12.30;99.90;;;;;;5032326;28;20268;-84
2023/05/11 04:27:38;;;;;;;3.60;3.07;;;12.20;99.90;;;;;;5032087;28;20723;-84
2023/05/11 04:30:05;;;;;;;3.53;3.23;;;12.30;99.90;;;;;;5032999;28;20221;-84
2023/05/11 04:32:30;;;;;;;3.50;3.20;;;12.30;99.90;;;;;;5033294;28;20727;-83
2023/05/11 04:34:56;;;;;;;3.53;3.23;;;12.20;99.90;;;;;;5032070;28;20166;-84
2023/05/11 04:37:22;;;;;;;3.80;3.20;;;12.10;99.90;;;;;;5033139;28;20241;-84
2023/05/11 04:39:47;;;;;;;3.27;2.97;;;12.20;99.90;;;;;;5031798;28;20615;-84
2023/05/11 04:42:13;;;;;;;3.20;2.90;;;12.20;99.90;;;;;;5032992;28;20171;-84
2023/05/11 04:44:38;;;;;;;4.87;3.20;;;12.30;99.90;;;;;;5031864;28;20206;-85
2023/05/11 04:47:04;;;;;;;4.23;3.07;;;12.30;99.90;;;;;;5031854;28;20202;-84
2023/05/11 04:49:30;;;;;;;3.20;2.73;;;12.30;99.90;;;;;;5031934;28;20217;-82
2023/05/11 04:51:55;;;;;;;3.73;2.90;;;12.30;99.90;;;;;;5032912;28;20243;-84
2023/05/11 04:54:21;;;;;;;3.17;2.77;;;12.30;99.90;;;;;;5033117;28;20202;-85
2023/05/11 04:56:46;;;;;;;3.50;3.20;;;12.40;99.90;;;;;;5033126;28;20171;-84
2023/05/11 04:59:12;;;;;;;3.40;3.10;;;12.40;99.90;;;;;;5033110;28;20211;-84
2023/05/11 05:01:37;;;;;;;3.37;3.07;;;12.40;99.90;;;;;;5032480;28;20173;-83
2023/05/11 05:04:03;;;;;;;5.13;3.10;;;12.50;99.90;;;;;;5031659;28;20182;-84
2023/05/11 05:06:29;;;;;;;2.80;2.60;;;12.50;99.90;;;;;;5032752;28;20198;-84
2023/05/11 05:08:54;;;;;;;3.50;2.83;;;12.50;99.90;;;;;;5032687;28;20194;-84
2023/05/11 05:11:20;;;;;;;4.53;2.97;;;12.60;99.90;;;;;;5031999;28;20182;-84
2023/05/11 05:13:46;;;;;;;4.00;3.30;;;12.60;99.90;;;;;;5032608;28;20249;-85
2023/05/11 05:16:11;;;;;;;4.27;3.53;;;12.60;99.90;;;;;;5031433;28;20198;-84
2023/05/11 05:18:37;;;;;;;5.07;3.70;;;12.70;99.90;;;;;;5030938;28;20191;-83
2023/05/11 05:21:02;;;;;;;3.73;3.10;;;12.60;99.90;;;;;;5030980;28;20641;-84
2023/05/11 05:23:28;;;;;;;4.50;3.47;;;12.60;99.90;;;;;;5032785;28;20241;-86
2023/05/11 05:25:53;;;;;;;4.83;3.87;;;12.50;99.90;;;;;;5032388;28;20176;-88
2023/05/11 05:28:19;;;;;;;4.87;3.47;;;12.70;99.90;;;;;;5030967;28;20198;-87
2023/05/11 05:30:45;;;;;;;5.60;3.73;;;12.80;99.90;;;;;;5030535;28;20179;-88
2023/05/11 05:33:10;;;;;;;5.13;4.23;;;12.80;99.90;;;;;;5032307;28;20206;-88
2023/05/11 05:35:36;;;;;;;6.40;3.90;;;12.90;99.90;;;;;;5032075;28;20201;-88
2023/05/11 05:38:01;;;;;;;4.57;3.90;;;12.90;99.90;;;;;;5031206;28;20197;-84
2023/05/11 05:40:27;;;;;;;5.67;4.40;;;13.10;99.90;;;;;;5030534;28;20181;-83
2023/05/11 05:42:53;;;;;;;5.43;4.30;;;13.00;99.90;;;;;;5032857;28;20189;-84
2023/05/11 05:45:19;;;;;;;4.60;4.07;;;12.90;99.90;;;;;;5036460;28;20178;-84
2023/05/11 05:47:45;;;;;;;5.07;3.93;;;12.80;99.90;;;;;;5061926;22;20259;-81
2023/05/11 05:50:11;;;;;;;6.47;4.20;;;12.70;99.90;;;;;;5032943;28;20577;-79
2023/05/11 05:52:37;;;;;;;6.60;4.10;;;12.60;99.90;;;;;;5034587;28;20201;-79
2023/05/11 05:55:02;;;;;;;4.70;4.20;;;12.60;99.90;;;;;;5034861;28;20174;-79
2023/05/11 05:57:29;;;;;;;4.07;3.67;;;12.60;99.90;;;;;;5035695;28;20166;-79
2023/05/11 05:59:55;;;;;;;4.73;4.10;;;12.50;99.90;;;;;;5034188;28;20272;-79
2023/05/11 06:02:21;;;;;;;5.00;4.13;;;12.60;99.90;;;;;;5035304;28;20182;-79
2023/05/11 06:04:46;;;;;;;4.87;4.27;;;12.60;99.90;;;;;;5035045;28;20182;-79
2023/05/11 06:07:13;;;;;;;4.47;4.07;;;12.60;99.90;;;;;;5033930;28;20197;-80
2023/05/11 06:09:39;;;;;;;4.50;4.10;;;12.70;99.90;;;;;;5032951;28;20281;-79
2023/05/11 06:12:05;;;;;;;5.20;4.53;;;12.60;99.90;;;;;;5035217;28;20249;-79
2023/05/11 06:14:30;;;;;;;5.23;4.57;;;12.60;99.90;;;;;;5034614;28;20266;-79
2023/05/11 06:16:56;;;;;;;6.30;4.50;;;12.60;99.90;;;;;;5034545;28;20170;-82
2023/05/11 06:19:22;;;;;;;5.10;4.50;;;12.60;99.90;;;;;;5035717;28;20673;-80
2023/05/11 06:21:47;;;;;;;6.27;4.90;;;12.70;99.90;;;;;;5039131;28;20174;-79
2023/05/11 06:24:13;;;;;;;6.30;4.60;;;12.70;99.90;;;;;;5039280;28;20167;-80
2023/05/11 06:26:39;;;;;;;5.97;4.87;;;12.70;99.90;;;;;;5038633;28;20174;-79
2023/05/11 06:29:06;;;;;;;5.90;4.67;;;12.70;99.90;;;;;;5038937;28;20194;-79
2023/05/11 06:31:32;;;;;;;4.77;4.27;;;12.70;99.90;;;;;;5036967;28;20179;-79
2023/05/11 06:33:57;;;;;;;5.50;4.23;;;12.70;99.90;;;;;;5039771;28;20277;-80
2023/05/11 06:36:23;;;;;;;5.90;4.50;;;12.80;99.90;;;;;;5040627;28;20166;-81
2023/05/11 06:38:49;;;;;;;4.57;4.17;;;12.80;99.90;;;;;;5039948;28;20661;-80
2023/05/11 06:41:15;;;;;;;5.83;4.27;;;12.80;99.90;;;;;;5036831;28;20170;-79
2023/05/11 06:43:41;;;;;;;4.93;4.40;;;12.80;99.90;;;;;;5036950;28;20186;-79
2023/05/11 06:46:06;;;;;;;5.13;4.37;;;12.70;99.90;;;;;;5036930;28;20174;-79
2023/05/11 06:48:32;;;;;;;7.70;4.20;;;12.70;99.90;;;;;;5036222;28;20248;-79
2023/05/11 06:50:58;;;;;;;5.63;4.17;;;12.80;99.90;;;;;;5036925;28;20269;-81
2023/05/11 06:53:23;;;;;;;5.57;4.60;;;12.80;99.90;;;;;;5037409;28;20205;-79
2023/05/11 06:55:49;;;;;;;5.43;4.33;;;12.80;99.90;;;;;;5037755;28;20192;-79
2023/05/11 06:58:15;;;;;;;6.87;4.40;;;13.00;99.90;;;;;;5037816;28;20197;-79
2023/05/11 07:00:41;;;;;;;6.20;4.10;;;12.90;99.90;;;;;;5037889;28;20181;-79
2023/05/11 07:03:07;;;;;;;5.10;4.40;;;12.80;99.90;;;;;;5038952;28;20178;-79
2023/05/11 07:05:32;;;;;;;5.20;4.60;;;12.90;99.90;;;;;;5038576;28;20261;-80
2023/05/11 07:07:58;;;;;;;4.97;4.10;;;13.00;99.90;;;;;;5037442;28;20260;-79
2023/05/11 07:10:24;;;;;;;7.03;4.73;;;13.00;99.90;;;;;;5038786;28;20199;-79
2023/05/11 07:12:49;;;;;;;4.83;4.30;;;13.00;99.90;;;;;;5037455;28;20198;-78
2023/05/11 07:15:15;;;;;;;4.53;4.07;;;13.00;99.90;;;;;;5038868;28;20625;-80
2023/05/11 07:17:40;;;;;;;4.10;3.70;;;13.00;99.90;;;;;;5038942;28;20205;-79
2023/05/11 07:20:06;;;;;;;5.37;4.20;;;13.00;99.90;;;;;;5041036;28;20171;-80
2023/05/11 07:22:32;;;;;;;6.87;5.10;;;13.00;99.90;;;;;;5042240;28;20200;-80
2023/05/11 07:24:59;;;;;;;5.50;4.37;;;13.10;99.90;;;;;;5040749;28;20178;-80
2023/05/11 07:27:24;;;;;;;5.20;4.30;;;13.10;99.90;;;;;;5040828;28;20198;-80
2023/05/11 07:29:51;;;;;;;5.90;4.80;;;13.10;99.90;;;;;;5041664;28;20201;-80
2023/05/11 07:32:17;;;;;;;4.93;4.40;;;13.10;99.90;;;;;;5042718;28;20186;-80
2023/05/11 07:34:43;;;;;;;5.47;4.53;;;13.10;99.90;;;;;;5040355;28;20698;-80
2023/05/11 07:37:09;;;;;;;8.40;5.07;;;13.20;99.90;;;;;;5039557;28;20178;-80
2023/05/11 07:39:34;;;;;;;5.20;4.50;;;13.20;99.90;;;;;;5037161;28;20221;-80
2023/05/11 07:42:00;;;;;;;6.43;4.77;;;13.30;99.90;;;;;;5041332;28;20213;-81
2023/05/11 07:44:25;;;;;;;6.17;4.80;;;13.30;99.90;;;;;;5040278;28;20182;-83
2023/05/11 07:46:51;;;;;;;5.30;4.37;;;13.50;99.90;;;;;;5041959;28;20673;-80
2023/05/11 07:49:17;;;;;;;5.47;4.77;;;13.60;99.90;;;;;;5040245;28;20206;-80
2023/05/11 07:51:43;;;;;;;6.27;5.17;;;13.60;99.90;;;;;;5041260;28;20174;-80
2023/05/11 07:54:08;;;;;;;5.43;4.40;;;13.70;99.90;;;;;;5040162;28;20216;-81
2023/05/11 07:56:34;;;;;;;5.50;4.03;;;13.90;99.90;;;;;;5041714;28;20215;-80
2023/05/11 07:59:00;;;;;;;5.27;4.27;;;14.00;99.90;;;;;;5036031;28;20202;-76
2023/05/11 08:01:25;;;;;;;6.20;4.73;;;14.00;99.90;;;;;;5038159;28;20181;-80
2023/05/11 08:03:51;;;;;;;6.03;4.70;;;14.10;99.90;;;;;;5034577;28;20174;-77
2023/05/11 08:06:16;;;;;;;5.77;4.67;;;14.00;99.90;;;;;;5039115;28;20269;-83
2023/05/11 08:08:42;;;;;;;5.47;4.80;;;13.80;29.40;;;;;;5038495;28;20243;-80
2023/05/11 08:11:08;;;;;;;5.27;4.47;;;13.80;99.90;;;;;;5039313;28;20174;-79
2023/05/11 08:13:33;;;;;;;5.23;4.30;;;13.90;99.90;;;;;;5039161;28;20202;-79
2023/05/11 08:15:59;;;;;;;7.17;5.20;;;14.00;99.90;;;;;;5037814;28;20196;-81
2023/05/11 08:18:25;;;;;;;5.80;5.13;;;14.10;34.50;;;;;;5037676;28;20217;-79
2023/05/11 08:20:51;;;;;;;7.27;5.37;;;14.00;99.90;;;;;;5037810;28;20190;-79
2023/05/11 08:23:17;;;;;;;5.60;4.87;;;13.90;99.90;;;;;;5037753;28;20179;-79
2023/05/11 08:25:54;;;;;;;5.93;4.40;;;14.10;99.90;;;;;;5038488;28;20220;-79
2023/05/11 08:28:20;;;;;;;6.03;5.20;;;14.30;99.90;;;;;;5039254;28;20190;-81
2023/05/11 08:30:52;;;;;;;6.07;4.83;;;14.40;99.90;;;;;;5036716;28;20170;-79
2023/05/11 08:33:17;;;;;;;5.13;4.60;;;14.50;99.90;;;;;;5039866;28;20202;-79
2023/05/11 08:35:43;;;;;;;5.73;5.13;;;14.60;99.90;;;;;;5038102;28;20680;-79
2023/05/11 08:38:08;;;;;;;6.70;5.50;;;14.60;99.90;;;;;;5038560;28;20688;-79
2023/05/11 08:40:34;;;;;;;6.07;4.67;;;14.60;99.90;;;;;;5040254;28;20174;-80
2023/05/11 08:43:04;;;;;;;5.37;4.37;;;14.80;99.90;;;;;;5038916;28;20265;-79
2023/05/11 08:45:32;;;;;;;5.03;4.53;;;14.90;99.90;;;;;;5039283;28;20193;-79
2023/05/11 08:47:58;;;;;;;5.67;5.07;;;14.90;99.90;;;;;;5039461;28;20236;-79
2023/05/11 08:50:24;;;;;;;5.20;4.70;;;14.90;99.90;;;;;;5038297;28;20182;-79
2023/05/11 08:52:49;;;;;;;6.43;5.20;;;15.00;99.90;;;;;;5037894;28;20642;-79
2023/05/11 08:55:15;;;;;;;5.63;4.90;;;15.00;99.90;;;;;;5037059;28;20198;-79
2023/05/11 08:57:43;;;;;;;4.93;4.53;;;15.00;99.90;;;;;;5037275;28;20357;-79
2023/05/11 09:00:09;;;;;;;4.80;4.07;;;15.20;99.90;;;;;;5037141;28;20182;-79
2023/05/11 09:02:35;;;;;;;4.43;4.00;;;15.30;1.00;;;;;;5036890;28;20175;-79
2023/05/11 09:05:03;;;;;;;4.40;4.00;;;15.20;99.90;;;;;;5037020;28;20174;-79
2023/05/11 09:07:29;;;;;;;5.07;4.50;;;15.20;1.00;;;;;;5036493;28;20257;-79
2023/05/11 09:09:55;;;;;;;6.00;3.97;;;15.30;1.00;;;;;;5037681;28;20194;-79
2023/05/11 09:12:24;;;;;;;4.27;3.87;;;15.30;1.00;;;;;;5038660;28;20181;-79
2023/05/11 09:14:51;;;;;;;6.03;5.00;;;15.10;99.90;;;;;;5038460;28;20173;-79
2023/05/11 09:17:17;;;;;;;5.73;4.27;;;15.10;1.00;;;;;;5038643;28;20169;-79
2023/05/11 09:20:04;;;;;;;5.07;4.30;;;15.30;1.00;;;;;;5036198;28;20186;-79
2023/05/11 09:22:39;;;;;;;5.30;4.80;;;15.30;1.00;;;;;;5037842;28;20173;-82
2023/05/11 09:25:05;;;;;;;4.90;4.40;;;15.40;1.00;;;;;;5038308;28;20170;-80
2023/05/11 09:27:31;;;;;;;6.23;4.90;;;15.30;1.00;;;;;;5037245;28;20178;-79
2023/05/11 09:30:13;;;;;;;4.70;4.30;;;15.40;1.00;;;;;;5037065;28;20190;-79
2023/05/11 09:32:54;;;;;;;6.33;4.30;;;15.50;1.00;;;;;;5040846;28;20240;-80
2023/05/11 09:35:32;;;;;;;4.70;4.30;;;15.40;1.00;;;;;;5041693;28;20225;-80
2023/05/11 09:38:06;;;;;;;4.90;4.40;;;15.50;1.00;;;;;;5040997;28;20202;-79
2023/05/11 09:40:42;;;;;;;4.87;4.47;;;15.50;1.00;;;;;;5053295;28;20166;-81
2023/05/11 09:43:26;;;;;;;4.60;4.07;;;15.60;1.00;;;;;;5058587;28;20687;-79
2023/05/11 09:46:05;;;;;;;5.20;4.27;;;15.70;1.00;;;;;;5045529;28;20209;-80
2023/05/11 09:48:32;;;;;;;5.03;4.53;;;15.80;1.00;;;;;;5041778;28;20210;-80
2023/05/11 09:51:04;;;;;;;6.63;5.00;;;15.60;1.00;;;;;;5041218;28;20645;-80
2023/05/11 09:53:35;;;;;;;5.27;4.40;;;15.50;1.00;;;;;;5043017;28;20231;-79
2023/05/11 09:56:00;;;;;;;4.80;4.30;;;15.50;1.00;;;;;;5034218;28;20225;-79
2023/05/11 09:58:34;;;;;;;5.40;4.83;;;15.50;1.00;;;;;;5025412;28;20195;-80
2023/05/11 10:01:00;;;;;;;5.67;4.67;;;15.60;1.00;;;;;;5023096;28;20186;-79
2023/05/11 10:03:25;;;;;;;5.30;4.67;;;15.40;1.00;;;;;;5028806;28;20178;-82
2023/05/11 10:06:00;;;;;;;5.20;4.70;;;15.40;1.00;;;;;;5045704;28;20441;-82
2023/05/11 10:08:33;;;;;;;4.93;4.27;;;15.40;99.90;;;;;;5045523;28;20759;-84
2023/05/11 10:11:00;;;;;;;5.17;4.67;;;15.30;1.00;;;;;;5047417;28;20197;-79
2023/05/11 10:13:27;;;;;;;5.87;4.77;;;15.20;1.00;;;;;;5042454;28;20193;-85
2023/05/11 10:15:55;;;;;;;4.63;4.20;;;15.10;99.90;;;;;;5042879;28;20174;-83
2023/05/11 10:18:21;;;;;;;4.03;3.70;;;15.10;99.90;;;;;;5040247;28;20289;-84
2023/05/11 10:20:47;;;;;;;4.00;3.60;;;15.10;99.90;;;;;;5042229;28;20606;-83
2023/05/11 10:23:16;;;;;;;3.83;3.33;;;15.20;99.90;;;;;;5039681;28;20182;-83
2023/05/11 10:25:42;;;;;;;3.20;2.90;;;15.20;7.80;;;;;;5042873;28;20530;-83
2023/05/11 10:28:08;;;;;;;4.20;3.00;;;15.20;99.90;;;;;;5042354;28;20206;-84
2023/05/11 10:30:34;;;;;;;3.30;2.60;;;15.20;62.00;;;;;;5039458;28;20189;-82
2023/05/11 10:33:00;;;;;;;3.20;2.90;;;15.20;99.90;;;;;;5033630;28;20198;-83
2023/05/11 10:35:27;;;;;;;2.63;2.30;;;15.30;99.90;;;;;;5046528;28;20182;-81
2023/05/11 10:37:52;;;;;;;5.80;4.50;;;15.80;99.90;;;;;;5039841;28;20242;-82
2023/05/11 10:40:18;;;;;;;3.60;3.30;;;16.10;99.90;;;;;;5043123;28;20201;-81
2023/05/11 10:43:05;;;;;;;2.60;2.40;;;16.60;51.00;;;;;;5047781;28;20194;-82
2023/05/11 10:45:40;;;;;;;2.50;2.30;;;16.50;99.90;;;;;;5046449;28;20228;-84
2023/05/11 10:48:28;;;;;;;2.40;1.90;;;16.30;1.00;;;;;;5045739;28;20225;-82
2023/05/11 10:51:12;;;;;;;2.37;1.93;;;16.00;1.00;;;;;;5052427;28;20175;-84
2023/05/11 10:54:00;;;;;;;2.83;1.87;;;15.70;1.00;;;;;;5026454;28;20670;-83
2023/05/11 10:56:41;;;;;;;2.50;2.20;;;15.60;1.00;;;;;;5026965;28;20175;-83
2023/05/11 10:59:36;;;;;;;2.27;2.00;;;15.50;1.00;;;;;;5028077;28;20199;-81
2023/05/11 11:02:02;;;;;;;2.17;1.80;;;15.40;72.40;;;;;;5026518;28;20182;-82
2023/05/11 11:04:48;;;;;;;2.20;2.00;;;15.50;37.50;;;;;;5027255;28;20554;-83
2023/05/11 11:07:18;;;;;;;2.00;1.80;;;15.30;1.00;;;;;;5035267;28;20175;-81
2023/05/11 11:09:58;;;;;;;1.77;1.60;;;15.40;1.00;;;;;;5046319;28;20202;-79
2023/05/11 11:12:26;;;;;;;1.70;1.60;;;15.40;1.00;;;;;;5041697;28;20173;-81
2023/05/11 11:15:05;;;;;;;2.20;2.00;;;15.50;1.00;;;;;;5041072;28;20690;-79
2023/05/11 11:17:34;;;;;;;3.73;2.20;;;15.70;1.00;;;;;;5059537;28;20172;-79
2023/05/11 11:20:03;;;;;;;2.13;1.93;;;15.70;1.00;;;;;;5049245;28;20187;-79
2023/05/11 11:22:35;;;;;;;2.70;2.40;;;15.80;1.00;;;;;;5041976;28;20173;-81
2023/05/11 11:25:07;;;;;;;2.10;1.90;;;15.70;99.90;;;;;;5040758;28;20175;-78
2023/05/11 11:27:39;;;;;;;2.50;2.30;;;15.60;1.00;;;;;;5041159;28;20253;-79
2023/05/11 11:30:22;;;;;;;2.60;2.40;;;15.60;1.00;;;;;;5040349;28;20196;-79
2023/05/11 11:32:53;;;;;;;2.40;2.20;;;15.60;1.00;;;;;;5024473;28;20241;-80
2023/05/11 11:35:40;;;;;;;2.50;2.30;;;15.40;1.00;;;;;;5021663;28;20177;-79
2023/05/11 11:38:12;;;;;;;3.10;2.80;;;15.40;36.40;;;;;;5021274;28;20661;-79
2023/05/11 11:40:39;;;;;;;2.90;2.57;;;15.40;27.90;;;;;;5035768;28;20804;-81
2023/05/11 11:43:19;;;;;;;3.40;3.10;;;15.40;99.90;;;;;;5020781;28;20708;-79
2023/05/11 11:45:59;;;;;;;7.13;3.17;;;15.30;94.90;;;;;;5022189;28;20163;-79
2023/05/11 11:48:32;;;;;;;3.30;3.00;;;15.20;99.90;;;;;;5048088;23;20218;-80
2023/05/11 11:51:03;;;;;;;3.93;3.00;;;15.10;99.90;;;;;;5070620;28;20178;-81
2023/05/11 11:53:42;;;;;;;3.33;3.07;;;15.00;99.90;;;;;;5055369;28;20286;-82
2023/05/11 11:56:28;;;;;;;5.13;3.70;;;14.90;99.90;;;;;;5055722;28;20195;-81
2023/05/11 11:59:04;;;;;;;4.23;3.83;;;15.00;99.90;;;;;;5044319;28;20198;-81
2023/05/11 12:01:36;;;;;;;4.83;4.10;;;14.90;99.90;;;;;;5033613;28;20174;-82
2023/05/11 12:04:04;;;;;;;5.83;4.70;;;14.90;99.90;;;;;;5034458;28;20167;-82
2023/05/11 12:06:37;;;;;;;4.47;3.83;;;14.80;99.90;;;;;;5033260;28;20179;-79
2023/05/11 12:09:04;;;;;;;4.60;3.93;;;14.80;99.90;;;;;;5033884;28;20194;-81
2023/05/11 12:11:30;;;;;;;3.90;3.50;;;14.70;99.90;;;;;;5035229;28;20177;-81
2023/05/11 12:13:58;;;;;;;4.57;3.83;;;14.70;99.90;;;;;;5033755;28;20197;-82
2023/05/11 12:16:23;;;;;;;4.17;3.67;;;14.70;99.90;;;;;;5035659;28;20167;-81
2023/05/11 12:18:54;;;;;;;4.70;4.10;;;14.60;99.90;;;;;;5034973;28;20205;-83
2023/05/11 12:21:26;;;;;;;4.90;4.40;;;14.60;99.90;;;;;;5034364;28;20182;-82
2023/05/11 12:23:58;;;;;;;4.67;4.17;;;14.60;99.90;;;;;;5034868;28;20178;-82
2023/05/11 12:26:26;;;;;;;4.50;3.87;;;14.60;99.90;;;;;;5034172;28;20170;-81
2023/05/11 12:29:08;;;;;;;4.63;4.13;;;14.60;99.90;;;;;;5034988;28;20245;-83
2023/05/11 12:31:42;;;;;;;4.07;3.67;;;14.70;99.90;;;;;;5034384;28;20225;-81
2023/05/11 12:34:19;;;;;;;3.67;3.10;;;14.70;99.90;;;;;;5034554;28;20198;-81
2023/05/11 12:36:45;;;;;;;2.70;2.30;;;14.70;99.90;;;;;;5033242;28;20170;-82
2023/05/11 12:39:25;;;;;;;2.97;2.67;;;14.70;99.90;;;;;;5033104;28;20281;-82
2023/05/11 12:41:53;;;;;;;3.10;2.63;;;14.60;99.90;;;;;;5033745;28;20162;-82
2023/05/11 12:44:22;;;;;;;5.20;3.17;;;14.60;99.90;;;;;;5033394;28;20170;-82
2023/05/11 12:46:48;;;;;;;4.53;3.10;;;14.70;99.90;;;;;;5034214;28;20174;-82
2023/05/11 12:49:24;;;;;;;2.10;1.97;;;14.70;99.90;;;;;;5031864;28;20214;-82
2023/05/11 12:51:59;;;;;;;3.30;2.93;;;14.80;3.10;;;;;;5032591;28;20174;-81
2023/05/11 12:54:33;;;;;;;3.80;3.40;;;14.70;99.90;;;;;;5031180;28;20190;-82